Ada, KS

9:10 AM CST on March 01, 2015 (GMT -0600)
ERC Field | Change Station
CLOSE
Current Station
Personal Weather Station
Location: Minneapolis, KS
Elevation: 1309 ft
Nearby Weather Stations
Active Advisory: Winter Weather Statement Active Notice: Local Storm Report

Elev 1309 ft 39.10 °N, 97.61 °W | Updated 8 minutes ago

Mostly Cloudy
Mostly Cloudy
33.8 °F
Feels Like 34 °F
N
1.7
Wind Variable Wind from West

Today
High -- | Low -- °F
--% Chance of Precip.
Yesterday
High -- | Low -- °F
Precip. -- in
7:03 AM 6:23 PM
Waxing Gibbous, 85% visible
Pressure 30.45 in
Visibility 6.0 miles
Clouds Few 4500 ft
Windchill 34 °F
Dew Point 24 °F
Humidity 66%
Rainfall 0.00 in
Snow Depth Not available.
UV 1 out of 12
Pollen .50 out of 12
Air Quality Not available.
Flu Activity Not available.
METAR KSLN 011453Z 00000KT 6SM HZ FEW045 M06/M08 A3039 RMK AO2 SLP310 I3000 T10561083 53018

More Conditions Fewer Conditions

Pressure 30.45 in
Visibility 6.0 miles
Clouds Few 4500 ft
Windchill 34 °F
Dew Point 24 °F
Humidity 66%
Rainfall 0.00 in
Snow Depth Not available.
UV 1 out of 12
Pollen .50 out of 12
Air Quality Not available.
Flu Activity Not available.
METAR KSLN 011453Z 00000KT 6SM HZ FEW045 M06/M08 A3039 RMK AO2 SLP310 I3000 T10561083 53018

More Conditions Fewer Conditions

10-Day Weather Forecast

Almanac

Astronomy

Mar. 01, 2015 Rise Set
Actual Time
Civil Twilight
Nautical Twilight
Astronomical Twilight
Moon
Length of Visible Light
Length of Day
Tomorrow will be .
, % of the Moon is Illuminated

Today's Extremes

State Highs State Lows

Community

WunderPhotos

Upload Photos

1,801,410 photos uploaded!

WunderBlogs® & News

Nearby

Air Quality

  Air Quality AQ Index Pollutant
Not available.

Snow Depth

Station Depth Elevation

Earthquake Activity

City Distance Mag. Time & Date
Minimum magnitude displayed is 2.5.

Coastal Water Temperatures

Place Temperature

Nearby Weather Stations

Winter Weather Statement
Statement as of 9:08 AM CST on March 01, 2015

... Winter Weather Advisory is cancelled...

The National Weather Service in Topeka has cancelled the Winter
Weather Advisory.

Areas of light snow have stayed south and east of the area this
morning. As a result... the Winter Weather Advisory has been
cancelled.